createdAt,value
2022-12-08T00:02:45.248Z,5.70
2022-12-08T00:06:08.079Z,6.80
2022-12-08T00:09:23.548Z,7.10
2022-12-08T00:12:26.387Z,7.22
2022-12-08T00:15:28.899Z,6.75
2022-12-08T00:18:31.777Z,6.07
2022-12-08T00:21:34.290Z,6.12
2022-12-08T00:24:39.825Z,8.27
2022-12-08T00:27:42.470Z,5.85
2022-12-08T00:30:45.452Z,6.90
2022-12-08T00:33:47.976Z,6.53
2022-12-08T00:36:50.923Z,7.10
2022-12-08T00:39:53.409Z,6.22
2022-12-08T00:42:56.389Z,6.80
2022-12-08T00:45:58.914Z,6.97
2022-12-08T00:49:02.489Z,6.05
2022-12-08T00:52:05.283Z,6.60
2022-12-08T00:55:08.563Z,6.53
2022-12-08T00:58:11.063Z,6.97
2022-12-08T01:01:15.206Z,5.95
2022-12-08T01:04:19.690Z,5.35
2022-12-08T01:07:22.437Z,7.18
2022-12-08T01:10:25.055Z,6.70
2022-12-08T01:13:28.418Z,6.07
2022-12-08T01:16:33.836Z,5.40
2022-12-08T01:19:37.838Z,6.93
2022-12-08T01:22:40.318Z,6.97
2022-12-08T01:25:43.065Z,7.32
2022-12-08T01:28:46.137Z,6.37
2022-12-08T01:31:48.914Z,6.95
2022-12-08T01:34:51.395Z,7.45
2022-12-08T01:37:54.146Z,6.82
2022-12-08T01:40:56.768Z,6.97
2022-12-08T01:44:13.738Z,7.32
2022-12-08T01:47:16.342Z,7.12
2022-12-08T01:50:21.393Z,4.97
2022-12-08T01:53:28.423Z,4.82
2022-12-08T01:56:53.451Z,6.15
2022-12-08T02:00:07.999Z,7.50
2022-12-08T02:03:20.183Z,6.18
2022-12-08T02:06:23.065Z,6.85
2022-12-08T02:09:25.763Z,5.87
2022-12-08T02:12:28.268Z,5.53
2022-12-08T02:16:00.544Z,6.55
2022-12-08T02:19:30.657Z,6.07
2022-12-08T02:22:34.361Z,7.45
2022-12-08T02:26:14.246Z,8.38
2022-12-08T02:29:28.960Z,7.28
2022-12-08T02:32:49.888Z,7.53
2022-12-08T02:35:55.704Z,6.45
2022-12-08T02:39:36.147Z,6.82
2022-12-08T02:43:07.093Z,7.10
2022-12-08T02:46:16.158Z,7.40
2022-12-08T02:49:19.025Z,8.05
2022-12-08T02:52:21.565Z,7.05
2022-12-08T02:55:52.293Z,6.62
2022-12-08T02:59:11.019Z,6.80
2022-12-08T03:02:31.290Z,8.63
2022-12-08T03:05:45.832Z,6.30
2022-12-08T03:08:58.872Z,6.57
2022-12-08T03:12:13.670Z,6.18
2022-12-08T03:15:20.202Z,7.25
2022-12-08T03:18:31.956Z,8.60
2022-12-08T03:21:36.372Z,10.07
2022-12-08T03:24:43.382Z,9.75
2022-12-08T03:27:46.286Z,11.20
2022-12-08T03:30:54.144Z,8.38
2022-12-08T03:33:59.935Z,8.27
2022-12-08T03:37:02.553Z,8.48
2022-12-08T03:40:07.940Z,6.82
2022-12-08T03:43:10.760Z,7.15
2022-12-08T03:46:14.797Z,6.12
2022-12-08T03:49:19.452Z,7.65
2022-12-08T03:52:22.325Z,6.32
2022-12-08T03:55:24.831Z,7.75
2022-12-08T03:58:28.475Z,7.65
2022-12-08T04:01:33.316Z,7.22
2022-12-08T04:04:36.031Z,7.07
2022-12-08T04:07:38.597Z,7.65
2022-12-08T04:10:43.360Z,8.48
2022-12-08T04:13:47.102Z,7.32
2022-12-08T04:16:49.885Z,6.75
2022-12-08T04:19:52.287Z,7.62
2022-12-08T04:22:55.107Z,8.23
2022-12-08T04:25:57.838Z,7.47
2022-12-08T04:29:00.699Z,8.43
2022-12-08T04:32:03.341Z,8.70
2022-12-08T04:35:06.480Z,8.25
2022-12-08T04:38:09.015Z,6.62
2022-12-08T04:41:11.779Z,7.32
2022-12-08T04:44:14.318Z,7.55
2022-12-08T04:47:17.161Z,8.48
2022-12-08T04:50:19.894Z,8.35
2022-12-08T04:53:22.713Z,6.05
2022-12-08T04:56:25.294Z,7.60
2022-12-08T04:59:28.152Z,8.85
2022-12-08T05:02:30.796Z,7.25
2022-12-08T05:05:33.712Z,7.12
2022-12-08T05:08:36.222Z,9.48
2022-12-08T05:11:48.289Z,9.52
2022-12-08T05:14:51.478Z,7.12
2022-12-08T05:17:54.681Z,7.20
2022-12-08T05:20:57.182Z,8.02
2022-12-08T05:24:00.105Z,6.78
2022-12-08T05:27:03.278Z,8.27
2022-12-08T05:30:07.151Z,8.40
2022-12-08T05:33:09.835Z,6.68
2022-12-08T05:36:14.596Z,7.80
2022-12-08T05:39:17.010Z,7.45
2022-12-08T05:42:24.589Z,6.53
2022-12-08T05:45:27.514Z,8.13
2022-12-08T05:48:30.587Z,7.68
2022-12-08T05:51:33.422Z,8.27
2022-12-08T05:54:36.295Z,8.32
2022-12-08T05:57:38.800Z,8.45
2022-12-08T06:00:42.598Z,7.18
2022-12-08T06:03:45.347Z,6.75
2022-12-08T06:06:47.855Z,7.28
2022-12-08T06:09:50.680Z,8.55
2022-12-08T06:12:53.360Z,6.65
2022-12-08T06:15:56.267Z,8.80
2022-12-08T06:18:58.819Z,8.45
2022-12-08T06:22:01.626Z,8.82
2022-12-08T06:25:07.309Z,7.35
2022-12-08T06:31:17.918Z,8.63
2022-12-08T06:34:20.774Z,7.82
2022-12-08T06:37:23.319Z,9.98
2022-12-08T06:40:26.028Z,9.75
2022-12-08T06:43:28.783Z,9.27
2022-12-08T06:46:31.726Z,8.43
2022-12-08T06:49:34.254Z,8.13
2022-12-08T06:52:45.663Z,8.60
2022-12-08T06:56:01.061Z,8.70
2022-12-08T06:59:04.259Z,10.05
2022-12-08T07:02:07.124Z,8.10
2022-12-08T07:05:09.933Z,9.02
2022-12-08T07:08:12.699Z,9.77
2022-12-08T07:11:21.148Z,8.20
2022-12-08T07:14:24.995Z,8.25
2022-12-08T07:17:27.917Z,8.68
2022-12-08T07:20:30.514Z,7.72
2022-12-08T07:23:33.711Z,7.70
2022-12-08T07:26:36.216Z,8.68
2022-12-08T07:29:39.174Z,8.45
2022-12-08T07:32:41.951Z,8.32
2022-12-08T07:35:49.158Z,9.70
2022-12-08T07:38:56.746Z,7.72
2022-12-08T07:41:59.825Z,9.83
2022-12-08T07:45:03.212Z,8.10
2022-12-08T07:48:06.362Z,8.60
2022-12-08T07:51:10.679Z,9.10
2022-12-08T07:54:13.714Z,9.23
2022-12-08T07:57:16.235Z,8.15
2022-12-08T08:00:19.840Z,7.87
2022-12-08T08:03:22.607Z,7.65
2022-12-08T08:06:25.078Z,9.43
2022-12-08T08:09:27.878Z,8.93
2022-12-08T08:12:32.416Z,10.02
2022-12-08T08:15:36.442Z,8.30
2022-12-08T08:18:39.746Z,9.85
2022-12-08T08:21:46.096Z,10.52
2022-12-08T08:24:48.906Z,9.45
2022-12-08T08:27:51.803Z,10.00
2022-12-08T08:30:54.541Z,10.73
2022-12-08T08:33:57.609Z,9.30
2022-12-08T08:37:00.607Z,8.73
2022-12-08T08:40:04.377Z,11.75
2022-12-08T08:43:07.198Z,10.43
2022-12-08T08:46:11.058Z,9.88
2022-12-08T08:49:14.018Z,9.90
2022-12-08T08:52:17.000Z,9.77
2022-12-08T08:55:19.544Z,9.43
2022-12-08T08:58:23.641Z,10.65
2022-12-08T09:01:28.138Z,9.68
2022-12-08T09:04:31.248Z,10.23
2022-12-08T09:07:33.814Z,10.32
2022-12-08T09:10:37.249Z,11.73
2022-12-08T09:13:40.037Z,10.50
2022-12-08T09:16:43.381Z,11.40
2022-12-08T09:19:46.012Z,9.80
2022-12-08T09:22:48.776Z,11.05
2022-12-08T09:25:51.376Z,12.05
2022-12-08T09:28:56.074Z,10.38
2022-12-08T09:31:58.701Z,12.00
2022-12-08T09:35:01.685Z,11.52
2022-12-08T09:38:04.224Z,11.23
2022-12-08T09:41:37.868Z,11.93
2022-12-08T09:45:03.017Z,11.57
2022-12-08T09:48:55.860Z,10.35
2022-12-08T09:51:58.781Z,10.38
2022-12-08T09:55:10.004Z,9.43
2022-12-08T09:58:21.114Z,11.30
2022-12-08T10:01:39.772Z,8.90
2022-12-08T10:04:42.615Z,11.77
2022-12-08T10:07:51.284Z,10.65
2022-12-08T10:10:59.698Z,10.35
2022-12-08T10:14:18.970Z,11.43
2022-12-08T10:17:36.093Z,11.00
2022-12-08T10:20:42.111Z,10.75
2022-12-08T10:23:49.667Z,12.07
2022-12-08T10:26:52.258Z,12.37
2022-12-08T10:29:55.042Z,11.12
2022-12-08T10:32:57.715Z,11.32
2022-12-08T10:36:03.225Z,11.12
2022-12-08T10:39:29.327Z,10.88
2022-12-08T10:42:39.857Z,10.32
2022-12-08T10:45:43.369Z,10.45
2022-12-08T10:49:24.900Z,12.25
2022-12-08T10:52:28.022Z,11.27
2022-12-08T10:55:40.927Z,11.95
2022-12-08T10:58:46.391Z,11.73
2022-12-08T11:01:51.555Z,12.37
2022-12-08T11:05:01.912Z,12.55
2022-12-08T11:08:05.906Z,12.63
2022-12-08T11:11:08.855Z,12.25
2022-12-08T11:14:22.804Z,10.88
2022-12-08T11:17:35.975Z,9.85
2022-12-08T11:20:42.070Z,8.43
2022-12-08T11:23:49.928Z,10.63
2022-12-08T11:26:59.487Z,9.70
2022-12-08T11:30:12.634Z,10.23
2022-12-08T11:33:23.465Z,9.80
2022-12-08T11:36:28.730Z,9.85
2022-12-08T11:39:35.797Z,8.30
2022-12-08T11:43:05.276Z,8.40
2022-12-08T11:46:21.682Z,8.38
2022-12-08T11:49:36.813Z,8.52
2022-12-08T11:52:46.577Z,6.97
2022-12-08T11:56:05.195Z,6.43
2022-12-08T11:59:11.085Z,7.22
2022-12-08T12:02:42.535Z,6.45
2022-12-08T12:06:18.298Z,6.80
2022-12-08T12:09:37.965Z,6.22
2022-12-08T12:13:22.568Z,6.15
2022-12-08T12:16:33.887Z,7.40
2022-12-08T12:19:40.005Z,6.43
2022-12-08T12:22:47.110Z,6.05
2022-12-08T12:25:59.693Z,5.07
2022-12-08T12:29:04.469Z,6.43
2022-12-08T12:32:10.467Z,6.07
2022-12-08T12:35:27.013Z,5.62
2022-12-08T12:38:57.059Z,9.93
2022-12-08T12:42:04.578Z,9.88
2022-12-08T12:45:16.331Z,8.45
2022-12-08T12:48:24.540Z,5.65
2022-12-08T12:54:50.406Z,8.50
2022-12-08T12:57:58.515Z,8.80
2022-12-08T13:01:13.244Z,10.20
2022-12-08T13:04:17.517Z,10.40
2022-12-08T13:07:26.776Z,11.35
2022-12-08T13:10:40.628Z,10.40
2022-12-08T13:14:01.496Z,10.57
2022-12-08T13:17:13.433Z,11.75
2022-12-08T13:20:24.861Z,9.48
2022-12-08T13:23:36.646Z,9.73
2022-12-08T13:26:50.414Z,10.75
2022-12-08T13:30:41.176Z,10.25
2022-12-08T13:33:44.430Z,9.00
2022-12-08T13:37:09.371Z,8.68
2022-12-08T13:40:20.744Z,10.20
2022-12-08T13:43:51.076Z,8.70
2022-12-08T13:52:32.917Z,6.70
2022-12-08T13:55:01.855Z,7.78
2022-12-08T13:57:29.768Z,6.30
2022-12-08T14:00:32.474Z,5.75
2022-12-08T14:04:34.142Z,5.93
2022-12-08T14:07:21.328Z,5.62
2022-12-08T14:10:32.092Z,8.23
2022-12-08T14:13:35.056Z,7.68
2022-12-08T14:16:53.919Z,7.72
2022-12-08T14:20:18.180Z,9.45
2022-12-08T14:23:21.202Z,7.93
2022-12-08T14:26:23.833Z,9.52
2022-12-08T14:29:59.984Z,8.30
2022-12-08T14:33:04.370Z,7.87
2022-12-08T14:36:10.648Z,8.15
2022-12-08T14:39:13.259Z,8.48
2022-12-08T14:42:27.205Z,8.52
2022-12-08T14:45:29.787Z,8.70
2022-12-08T14:48:36.382Z,7.62
2022-12-08T14:51:40.115Z,7.18
2022-12-08T14:54:43.634Z,7.12
2022-12-08T14:57:49.232Z,7.97
2022-12-08T15:00:54.651Z,7.50
2022-12-08T15:04:13.348Z,7.32
2022-12-08T15:07:17.349Z,8.13
2022-12-08T15:10:26.635Z,8.32
2022-12-08T15:13:30.084Z,6.07
2022-12-08T15:16:43.556Z,8.13
2022-12-08T15:19:58.847Z,7.93
2022-12-08T15:23:02.173Z,7.55
2022-12-08T15:26:05.510Z,5.60
2022-12-08T15:29:13.881Z,8.95
2022-12-08T15:32:21.871Z,7.57
2022-12-08T15:35:24.300Z,7.47
2022-12-08T15:38:31.470Z,6.22
2022-12-08T15:41:33.915Z,7.12
2022-12-08T15:44:36.902Z,7.03
2022-12-08T15:47:39.533Z,7.68
2022-12-08T15:50:42.451Z,8.10
2022-12-08T15:53:44.924Z,7.35
2022-12-08T15:57:17.899Z,8.30
2022-12-08T16:00:52.364Z,7.40
2022-12-08T16:07:25.808Z,6.50
2022-12-08T16:10:40.526Z,6.80
2022-12-08T16:14:08.575Z,8.57
2022-12-08T16:17:17.841Z,7.53
2022-12-08T16:20:28.167Z,8.25
2022-12-08T16:23:44.162Z,7.70
2022-12-08T16:30:16.412Z,6.40
2022-12-08T16:36:21.471Z,7.05
2022-12-08T16:39:26.263Z,7.87
2022-12-08T16:42:40.624Z,7.57
2022-12-08T16:45:44.981Z,8.85
2022-12-08T16:48:48.177Z,7.22
2022-12-08T16:51:50.621Z,9.20
2022-12-08T16:54:53.510Z,7.07
2022-12-08T16:57:56.172Z,7.50
2022-12-08T17:00:59.029Z,9.48
2022-12-08T17:04:29.997Z,7.57
2022-12-08T17:07:24.525Z,7.68
2022-12-08T17:10:29.835Z,9.30
2022-12-08T17:13:33.307Z,7.97
2022-12-08T17:16:35.981Z,8.60
2022-12-08T17:19:38.887Z,9.02
2022-12-08T17:22:41.415Z,7.82
2022-12-08T17:25:44.180Z,8.10
2022-12-08T17:29:02.284Z,8.32
2022-12-08T17:32:05.536Z,7.35
2022-12-08T17:35:08.451Z,8.30
2022-12-08T17:38:11.347Z,8.95
2022-12-08T17:41:13.809Z,6.62
2022-12-08T17:44:19.066Z,9.10
2022-12-08T17:47:22.450Z,8.15
2022-12-08T17:50:25.311Z,7.43
2022-12-08T17:53:29.772Z,6.93
2022-12-08T17:56:35.779Z,8.18
2022-12-08T17:59:38.326Z,7.55
2022-12-08T18:02:41.156Z,6.05
2022-12-08T18:05:46.981Z,7.37
2022-12-08T18:08:49.563Z,8.43
2022-12-08T18:11:52.289Z,7.82
2022-12-08T18:14:54.834Z,7.43
2022-12-08T18:17:57.594Z,8.60
2022-12-08T18:21:00.177Z,7.53
2022-12-08T18:24:04.185Z,7.15
2022-12-08T18:27:06.658Z,7.45
2022-12-08T18:30:14.369Z,8.00
2022-12-08T18:33:16.920Z,6.87
2022-12-08T18:36:23.779Z,8.57
2022-12-08T18:39:32.059Z,7.50
2022-12-08T18:42:35.261Z,7.25
2022-12-08T18:45:39.689Z,6.47
2022-12-08T18:48:47.187Z,6.00
2022-12-08T18:51:49.729Z,5.87
2022-12-08T18:55:08.059Z,7.10
2022-12-08T18:58:14.864Z,6.22
2022-12-08T19:01:17.870Z,8.02
2022-12-08T19:04:28.288Z,7.90
2022-12-08T19:07:31.947Z,6.90
2022-12-08T19:10:37.969Z,7.75
2022-12-08T19:13:40.788Z,6.80
2022-12-08T19:16:43.318Z,6.57
2022-12-08T19:19:46.279Z,6.35
2022-12-08T19:22:48.913Z,6.03
2022-12-08T19:25:51.614Z,6.12
2022-12-08T19:28:54.391Z,5.93
2022-12-08T19:31:57.417Z,7.45
2022-12-08T19:35:00.332Z,6.97
2022-12-08T19:38:03.456Z,6.10
2022-12-08T19:41:24.659Z,6.97
2022-12-08T19:44:28.877Z,7.40
2022-12-08T19:47:31.417Z,5.93
2022-12-08T19:50:37.338Z,6.47
2022-12-08T19:53:47.171Z,6.10
2022-12-08T19:56:50.559Z,7.47
2022-12-08T19:59:56.441Z,5.57
2022-12-08T20:03:00.358Z,5.93
2022-12-08T20:06:03.207Z,6.25
2022-12-08T20:09:06.651Z,6.37
2022-12-08T20:12:10.002Z,6.55
2022-12-08T20:15:12.564Z,7.32
2022-12-08T20:18:16.044Z,6.95
2022-12-08T20:21:19.460Z,6.50
2022-12-08T20:24:22.292Z,7.05
2022-12-08T20:27:25.040Z,6.40
2022-12-08T20:30:27.990Z,7.12
2022-12-08T20:33:30.469Z,6.93
2022-12-08T20:36:33.413Z,7.00
2022-12-08T20:39:35.910Z,8.02
2022-12-08T20:42:38.845Z,7.80
2022-12-08T20:45:41.297Z,6.50
2022-12-08T20:48:44.626Z,7.30
2022-12-08T20:51:47.290Z,7.40
2022-12-08T20:54:50.193Z,8.13
2022-12-08T20:57:52.847Z,6.90
2022-12-08T21:00:55.740Z,7.25
2022-12-08T21:03:58.704Z,6.55
2022-12-08T21:07:01.607Z,6.53
2022-12-08T21:10:04.920Z,8.35
2022-12-08T21:13:08.411Z,7.30
2022-12-08T21:16:16.484Z,8.00
2022-12-08T21:22:22.964Z,7.05
2022-12-08T21:25:26.072Z,6.45
2022-12-08T21:28:28.891Z,7.18
2022-12-08T21:31:32.149Z,6.90
2022-12-08T21:34:35.519Z,8.73
2022-12-08T21:37:38.366Z,6.65
2022-12-08T21:40:41.201Z,7.78
2022-12-08T21:43:44.131Z,7.82
2022-12-08T21:46:46.889Z,7.10
2022-12-08T21:49:49.755Z,7.93
2022-12-08T21:52:52.335Z,7.28
2022-12-08T21:55:55.152Z,6.95
2022-12-08T21:58:57.746Z,7.90
2022-12-08T22:02:00.923Z,9.05
2022-12-08T22:05:04.250Z,6.87
2022-12-08T22:08:07.333Z,9.00
2022-12-08T22:11:11.429Z,8.15
2022-12-08T22:14:15.125Z,8.10
2022-12-08T22:17:18.749Z,8.15
2022-12-08T22:20:22.667Z,9.32
2022-12-08T22:23:25.724Z,8.05
2022-12-08T22:26:28.241Z,10.75
2022-12-08T22:29:31.169Z,9.15
2022-12-08T22:32:33.778Z,8.32
2022-12-08T22:35:36.692Z,8.30
2022-12-08T22:38:39.315Z,8.18
2022-12-08T22:41:42.410Z,7.97
2022-12-08T22:44:45.318Z,8.15
2022-12-08T22:47:48.082Z,8.13
2022-12-08T22:50:50.820Z,7.82
2022-12-08T22:54:10.812Z,7.72
2022-12-08T22:57:13.315Z,7.35
2022-12-08T23:00:16.396Z,8.43
2022-12-08T23:03:19.066Z,9.15
2022-12-08T23:06:22.132Z,8.68
2022-12-08T23:09:24.728Z,8.40
2022-12-08T23:12:27.463Z,7.97
2022-12-08T23:15:30.103Z,7.93
2022-12-08T23:18:33.024Z,8.48
2022-12-08T23:21:35.835Z,9.13
2022-12-08T23:24:38.661Z,8.98
2022-12-08T23:27:41.083Z,9.57
2022-12-08T23:30:44.292Z,7.87
2022-12-08T23:33:47.833Z,9.52
2022-12-08T23:36:50.881Z,8.50
2022-12-08T23:39:53.625Z,9.88
2022-12-08T23:42:56.576Z,7.62
2022-12-08T23:45:59.271Z,8.80
2022-12-08T23:49:01.993Z,8.18
2022-12-08T23:52:04.864Z,8.02
2022-12-08T23:55:08.369Z,7.97
2022-12-08T23:58:11.452Z,9.55
